Flight Track Log - Related Links

Times and Time Zones

All times are in EDT time to prevent confusion due to time zone crossing. See the DAL3799 flight status page for this flight to view local times or setup timezone preferences in your user account.

Time Position Orientation Groundspeed Altitude Reporting Facility
EDT Latitude Longitude Course Direction KTS MPH feet Rate Location/Type
Wed 11:32:54 AM 35.3769 -97.5944 90° East 150 173 1,800  Level Fort Worth Center
Wed 11:33:49 AM 35.3644 -97.5486 108° East 199 229 3,000 1,721 Climbing Fort Worth Center
Wed 11:34:56 AM 35.3667 -97.4542 88° East 246 283 5,300 2,058 Climbing Fort Worth Center
Wed 11:36:00 AM 35.4000 -97.0863 90° East  Level FlightAware Approximate
Wed 11:36:06 AM 35.3667 -97.3422 90° East 287 330 7,700  Level Fort Worth Center
Wed 11:37:00 AM 35.4000 -96.9576 90° East  Level FlightAware Approximate
Wed 11:37:06 AM 35.3747 -97.2431 84° East 293 337 10,300  Level Fort Worth Center
Wed 11:38:00 AM 35.4000 -96.8289 90° East  Level FlightAware Approximate
Wed 11:38:06 AM 35.3725 -97.1311 91° East 300 345 11,300  Level Fort Worth Center
Wed 11:39:06 AM 35.3742 -97.0011 89° East 336 387 12,300 1,550 Climbing Fort Worth Center
Wed 11:40:06 AM 35.3781 -96.8661 88° East 375 432 14,400 2,050 Climbing Fort Worth Center
Wed 11:41:06 AM 35.3794 -96.7311 89° East 391 450 16,400 1,750 Climbing Fort Worth Center
Wed 11:42:06 AM 35.3806 -96.5911 89° East 403 464 17,900 1,550 Climbing Fort Worth Center
Wed 11:43:06 AM 35.3817 -96.4511 89° East 403 464 19,500 1,500 Climbing Fort Worth Center
Wed 11:44:06 AM 35.3847 -96.3058 88° East 408 470 20,900 1,300 Climbing Fort Worth Center
Wed 11:45:06 AM 35.3853 -96.1583 90° East 420 483 22,100 1,200 Climbing Fort Worth Center
Wed 11:46:06 AM 35.3858 -96.0081 90° East 432 497 23,300 1,200 Climbing Fort Worth Center
Wed 11:47:06 AM 35.3883 -95.8731 89° East 438 504 24,500 1,123 Climbing Fort Worth Center
Wed 11:48:57 AM 35.3917 -95.5933 89° East 430 495 26,500 1,053 Climbing Memphis Center
Wed 11:49:57 AM 35.3917 -95.4431 90° East 435 501 27,500 1,100 Climbing Memphis Center
Wed 11:50:57 AM 35.3917 -95.2903 90° East 440 506 28,700 1,200 Climbing Memphis Center
Wed 11:51:57 AM 35.3892 -95.1400 91° East 440 506 29,900 1,250 Climbing Memphis Center
Wed 11:52:57 AM 35.3886 -94.9869 90° East 440 506 31,200 1,250 Climbing Memphis Center
Wed 11:53:57 AM 35.3900 -94.8394 89° East 440 506 32,400 1,200 Climbing Memphis Center
Wed 11:54:57 AM 35.3889 -94.6942 90° East 440 506 33,600 850 Climbing Memphis Center
Wed 11:55:57 AM 35.3856 -94.5489 92° East 435 501 34,100 500 Climbing Memphis Center
Wed 11:56:57 AM 35.3861 -94.4011 90° East 435 501 34,600 450 Climbing Memphis Center
Wed 11:57:57 AM 35.3847 -94.2508 91° East 440 506 35,000 200 Climbing Memphis Center
Wed 11:58:57 AM 35.3728 -94.0975 95° East 445 512 35,000  Level Memphis Center
Wed 11:59:57 AM 35.3628 -93.9419 94° East 445 512 35,000  Level Memphis Center
Wed 12:00:57 PM 35.3503 -93.7886 96° East 450 518 35,000  Level Memphis Center
Wed 12:01:57 PM 35.3419 -93.6306 94° East 450 518 35,000  Level Memphis Center
Wed 12:02:57 PM 35.3333 -93.4850 94° East 450 518 35,000  Level Memphis Center
Wed 12:03:57 PM 35.3206 -93.3217 95° East 455 524 35,000  Level Memphis Center
Wed 12:04:57 PM 35.3075 -93.1711 96° East 460 529 35,000  Level Memphis Center
Wed 12:05:57 PM 35.2961 -93.0131 95° East 460 529 35,000  Level Memphis Center
Wed 12:06:57 PM 35.2831 -92.8397 95° East 465 535 35,000  Level Memphis Center
Wed 12:07:57 PM 35.2694 -92.6867 96° East 459 528 35,000  Level Memphis Center
Wed 12:08:57 PM 35.2556 -92.5286 96° East 459 528 35,000  Level Memphis Center
Wed 12:09:57 PM 35.2453 -92.4011 96° East 467 537 35,000  Level Memphis Center
Wed 12:10:57 PM 35.2333 -92.2331 95° East 459 528 35,000  Level Memphis Center
Wed 12:11:57 PM 35.2167 -92.0728 97° East 466 536 35,000  Level Memphis Center
Wed 12:12:57 PM 35.2019 -91.9200 97° East 459 528 35,000  Level Memphis Center
Wed 12:13:57 PM 35.1875 -91.7494 96° East 464 534 35,000  Level Memphis Center
Wed 12:14:57 PM 35.1764 -91.5942 95° East 464 534 35,000  Level Memphis Center
Wed 12:15:57 PM 35.1614 -91.4392 97° East 459 528 35,000  Level Memphis Center
Wed 12:16:57 PM 35.1481 -91.2814 96° East 465 535 35,000  Level Memphis Center
Wed 12:17:57 PM 35.1303 -91.1289 98° East 460 529 35,000  Level Memphis Center
Wed 12:18:57 PM 35.1164 -90.9764 96° East 461 531 35,000  Level Memphis Center
Wed 12:19:57 PM 35.1025 -90.8189 96° East 461 531 35,000  Level Memphis Center
Wed 12:20:57 PM 35.0883 -90.6667 96° East 461 531 35,000  Level Memphis Center
Wed 12:21:57 PM 35.0719 -90.5169 98° East 456 525 35,000  Level Memphis Center
Wed 12:22:57 PM 35.0553 -90.3622 97° East 456 525 35,000  Level Memphis Center
Wed 12:23:57 PM 35.0428 -90.2253 96° East 456 525 35,000  Level Memphis Center
Wed 12:24:57 PM 35.0258 -90.0681 97° East 461 531 35,000  Level Memphis Center
Wed 12:25:57 PM 35.0108 -89.9133 97° East 466 536 35,000  Level Memphis Center
Wed 12:26:57 PM 34.9892 -89.7386 99° East 466 536 35,000  Level Memphis Center
Wed 12:27:57 PM 34.9589 -89.5817 103° East 475 547 35,000  Level Memphis Center
Wed 12:28:57 PM 34.9350 -89.4300 101° East 464 534 35,000  Level Memphis Center
Wed 12:29:57 PM 34.9128 -89.2783 100° East 458 527 35,000  Level Memphis Center
Wed 12:30:57 PM 34.8886 -89.1317 101° East 446 513 35,000  Level Memphis Center
Wed 12:31:57 PM 34.8683 -88.9978 100° East 446 513 35,000  Level Memphis Center
Wed 12:32:57 PM 34.8458 -88.8514 101° East 446 513 35,000  Level Memphis Center
Wed 12:33:57 PM 34.8231 -88.7078 101° East 446 513 35,000  Level Memphis Center
Wed 12:34:57 PM 34.8022 -88.5614 100° East 446 513 35,000  Level Memphis Center
Wed 12:35:57 PM 34.7750 -88.4028 102° East 440 506 35,000 -650 Level Memphis Center
Wed 12:36:57 PM 34.7517 -88.2517 101° East 446 513 33,700 -1,000 Descending Memphis Center
Wed 12:37:57 PM 34.7303 -88.1056 100° East 468 539 33,000 -350 Descending Memphis Center
Wed 12:38:57 PM 34.7022 -87.9447 102° East 462 532 33,000  Level Memphis Center
Wed 12:39:57 PM 34.6783 -87.7989 101° East 451 519 33,000  Level Memphis Center
Wed 12:40:57 PM 34.6544 -87.6481 101° East 451 519 33,000  Level Memphis Center
Wed 12:41:57 PM 34.6281 -87.5050 103° East 451 519 33,000  Level Memphis Center
Wed 12:43:16 PM 34.5961 -87.3039 101° East 458 527 33,000  Level Atlanta Center
Wed 12:44:16 PM 34.5689 -87.1542 102° East 458 527 33,000  Level Atlanta Center
Wed 12:45:16 PM 34.5389 -87.0092 104° East 450 518 33,000 -100 Level Atlanta Center
Wed 12:46:16 PM 34.5092 -86.8594 104° East 450 518 32,800 -850 Descending Atlanta Center
Wed 12:47:16 PM 34.4811 -86.7125 103° East 450 518 31,300 -1,500 Descending Atlanta Center
Wed 12:48:16 PM 34.4531 -86.5603 103° East 450 518 29,800 -1,500 Descending Atlanta Center
Wed 12:49:16 PM 34.4225 -86.4108 104° East 455 524 28,300 -1,500 Descending Atlanta Center
Wed 12:50:16 PM 34.3942 -86.2642 103° East 455 524 26,800 -1,550 Descending Atlanta Center
Wed 12:51:16 PM 34.3653 -86.1175 103° East 455 524 25,200 -1,800 Descending Atlanta Center
Wed 12:52:16 PM 34.3364 -85.9758 104° East 449 517 23,200 -1,900 Descending Atlanta Center
Wed 12:53:16 PM 34.3006 -85.8467 109° East 428 493 21,400 -1,600 Descending Atlanta Center
Wed 12:54:16 PM 34.2733 -85.7256 105° East 387 445 20,000 -1,500 Descending Atlanta Center
Wed 12:55:16 PM 34.2372 -85.6017 109° East 377 434 18,400 -1,450 Descending Atlanta Center
Wed 12:56:16 PM 34.2075 -85.4831 107° East 377 434 17,100 -1,400 Descending Atlanta Center
Wed 12:57:16 PM 34.1775 -85.3644 107° East 377 434 15,600 -1,500 Descending Atlanta Center
Wed 12:58:16 PM 34.1472 -85.2511 108° East 361 415 14,100 -1,300 Descending Atlanta Center
Wed 12:59:16 PM 34.1192 -85.1403 107° East 355 409 13,000 -550 Descending Atlanta Center
Wed 01:00:16 PM 34.0867 -85.0322 110° East 344 396 13,000 -150 Level Atlanta Center
Wed 01:01:16 PM 34.0286 -84.9661 137° Southeast 322 371 12,700 -950 Descending Atlanta Center
Wed 01:02:16 PM 33.9497 -84.9403 165° South 294 338 11,100 -1,550 Descending Atlanta Center
Wed 01:03:16 PM 33.8747 -84.9194 167° South 284 327 9,600 -1,050 Descending Atlanta Center
Wed 01:04:16 PM 33.7975 -84.8986 167° South 279 321 9,000 -900 Descending Atlanta Center
Wed 01:05:16 PM 33.7203 -84.8931 177° South 279 321 7,800 -1,000 Descending Atlanta Center
Wed 01:06:16 PM 33.6517 -84.8822 173° South 267 307 7,000 -593 Descending Atlanta Center
Wed 01:06:37 PM 33.6333 -84.8500 124° Southeast 248 285 7,000 -444 Level Atlanta TRACON
Wed 01:07:37 PM 33.6333 -84.7667 90° East 242 278 6,400 -1,000 Descending Atlanta TRACON
Wed 01:08:37 PM 33.6333 -84.7000 90° East 220 253 5,000 -1,400 Descending Atlanta TRACON

Login

Don't have an account? Register now (free) for customized features, flight alerts, and more!